sensor_id;sensor_type;location;lat;lon;timestamp;P1;durP1;ratioP1;P2;durP2;ratioP2
52530;SDS011;38441;52.894;6.040;2022-10-31T00:00:20;17.73;;;6.90;;
52530;SDS011;38441;52.894;6.040;2022-10-31T00:02:46;10.80;;;6.82;;
52530;SDS011;38441;52.894;6.040;2022-10-31T00:05:12;15.35;;;7.85;;
52530;SDS011;38441;52.894;6.040;2022-10-31T00:07:37;11.18;;;7.15;;
52530;SDS011;38441;52.894;6.040;2022-10-31T00:10:03;12.73;;;7.35;;
52530;SDS011;38441;52.894;6.040;2022-10-31T00:12:29;11.45;;;6.90;;
52530;SDS011;38441;52.894;6.040;2022-10-31T00:14:55;11.68;;;7.30;;
52530;SDS011;38441;52.894;6.040;2022-10-31T00:17:21;10.18;;;6.32;;
52530;SDS011;38441;52.894;6.040;2022-10-31T00:19:46;12.07;;;6.75;;
52530;SDS011;38441;52.894;6.040;2022-10-31T00:22:12;12.43;;;6.68;;
52530;SDS011;38441;52.894;6.040;2022-10-31T00:24:37;11.05;;;6.72;;
52530;SDS011;38441;52.894;6.040;2022-10-31T00:27:03;11.18;;;7.28;;
52530;SDS011;38441;52.894;6.040;2022-10-31T00:29:30;12.75;;;7.13;;
52530;SDS011;38441;52.894;6.040;2022-10-31T00:31:55;16.98;;;8.15;;
52530;SDS011;38441;52.894;6.040;2022-10-31T00:34:21;12.18;;;7.00;;
52530;SDS011;38441;52.894;6.040;2022-10-31T00:36:46;13.80;;;7.30;;
52530;SDS011;38441;52.894;6.040;2022-10-31T00:39:12;12.93;;;7.32;;
52530;SDS011;38441;52.894;6.040;2022-10-31T00:41:37;14.18;;;7.72;;
52530;SDS011;38441;52.894;6.040;2022-10-31T00:44:03;13.35;;;7.57;;
52530;SDS011;38441;52.894;6.040;2022-10-31T00:46:29;12.80;;;7.20;;
52530;SDS011;38441;52.894;6.040;2022-10-31T00:48:55;12.40;;;7.65;;
52530;SDS011;38441;52.894;6.040;2022-10-31T00:51:20;14.40;;;7.95;;
52530;SDS011;38441;52.894;6.040;2022-10-31T00:53:46;11.57;;;7.47;;
52530;SDS011;38441;52.894;6.040;2022-10-31T00:56:12;15.32;;;6.75;;
52530;SDS011;38441;52.894;6.040;2022-10-31T00:58:37;11.40;;;7.63;;
52530;SDS011;38441;52.894;6.040;2022-10-31T01:01:03;13.07;;;7.03;;
52530;SDS011;38441;52.894;6.040;2022-10-31T01:03:30;15.32;;;7.50;;
52530;SDS011;38441;52.894;6.040;2022-10-31T01:06:01;14.05;;;7.93;;
52530;SDS011;38441;52.894;6.040;2022-10-31T01:08:29;12.10;;;7.88;;
52530;SDS011;38441;52.894;6.040;2022-10-31T01:10:59;15.65;;;8.25;;
52530;SDS011;38441;52.894;6.040;2022-10-31T01:13:26;12.55;;;8.00;;
52530;SDS011;38441;52.894;6.040;2022-10-31T01:15:55;12.15;;;8.10;;
52530;SDS011;38441;52.894;6.040;2022-10-31T01:18:24;11.90;;;7.93;;
52530;SDS011;38441;52.894;6.040;2022-10-31T01:23:36;16.42;;;7.78;;
52530;SDS011;38441;52.894;6.040;2022-10-31T01:26:04;11.95;;;7.88;;
52530;SDS011;38441;52.894;6.040;2022-10-31T01:28:36;13.80;;;8.00;;
52530;SDS011;38441;52.894;6.040;2022-10-31T01:31:04;11.60;;;8.77;;
52530;SDS011;38441;52.894;6.040;2022-10-31T01:33:32;12.18;;;7.85;;
52530;SDS011;38441;52.894;6.040;2022-10-31T01:35:58;13.45;;;8.20;;
52530;SDS011;38441;52.894;6.040;2022-10-31T01:38:24;14.65;;;8.20;;
52530;SDS011;38441;52.894;6.040;2022-10-31T01:40:50;12.77;;;7.68;;
52530;SDS011;38441;52.894;6.040;2022-10-31T01:43:16;10.98;;;7.30;;
52530;SDS011;38441;52.894;6.040;2022-10-31T01:45:42;12.05;;;7.00;;
52530;SDS011;38441;52.894;6.040;2022-10-31T01:48:12;11.82;;;7.35;;
52530;SDS011;38441;52.894;6.040;2022-10-31T01:50:40;12.23;;;8.13;;
52530;SDS011;38441;52.894;6.040;2022-10-31T01:53:08;9.88;;;6.40;;
52530;SDS011;38441;52.894;6.040;2022-10-31T01:55:38;13.02;;;7.18;;
52530;SDS011;38441;52.894;6.040;2022-10-31T01:58:07;12.00;;;6.97;;
52530;SDS011;38441;52.894;6.040;2022-10-31T02:00:38;12.63;;;6.88;;
52530;SDS011;38441;52.894;6.040;2022-10-31T02:03:05;11.90;;;6.80;;
52530;SDS011;38441;52.894;6.040;2022-10-31T02:05:31;9.00;;;5.85;;
52530;SDS011;38441;52.894;6.040;2022-10-31T02:08:04;10.85;;;6.68;;
52530;SDS011;38441;52.894;6.040;2022-10-31T02:10:34;10.90;;;6.63;;
52530;SDS011;38441;52.894;6.040;2022-10-31T02:13:02;9.75;;;6.97;;
52530;SDS011;38441;52.894;6.040;2022-10-31T02:15:30;11.35;;;6.78;;
52530;SDS011;38441;52.894;6.040;2022-10-31T02:17:57;10.77;;;6.75;;
52530;SDS011;38441;52.894;6.040;2022-10-31T02:20:24;11.05;;;6.85;;
52530;SDS011;38441;52.894;6.040;2022-10-31T02:23:02;11.80;;;6.75;;
52530;SDS011;38441;52.894;6.040;2022-10-31T02:28:45;13.13;;;7.60;;
52530;SDS011;38441;52.894;6.040;2022-10-31T02:31:29;11.45;;;6.88;;
52530;SDS011;38441;52.894;6.040;2022-10-31T02:36:56;8.90;;;6.32;;
52530;SDS011;38441;52.894;6.040;2022-10-31T02:39:26;11.23;;;7.47;;
52530;SDS011;38441;52.894;6.040;2022-10-31T02:42:15;13.27;;;7.45;;
52530;SDS011;38441;52.894;6.040;2022-10-31T02:44:54;11.27;;;7.13;;
52530;SDS011;38441;52.894;6.040;2022-10-31T02:47:29;11.88;;;7.40;;
52530;SDS011;38441;52.894;6.040;2022-10-31T02:52:49;13.80;;;7.65;;
52530;SDS011;38441;52.894;6.040;2022-10-31T02:57:51;10.38;;;7.28;;
52530;SDS011;38441;52.894;6.040;2022-10-31T03:00:20;12.18;;;7.10;;
52530;SDS011;38441;52.894;6.040;2022-10-31T03:08:23;14.20;;;7.78;;
52530;SDS011;38441;52.894;6.040;2022-10-31T03:10:57;12.40;;;7.60;;
52530;SDS011;38441;52.894;6.040;2022-10-31T03:13:45;13.68;;;7.80;;
52530;SDS011;38441;52.894;6.040;2022-10-31T03:16:14;13.50;;;7.88;;
52530;SDS011;38441;52.894;6.040;2022-10-31T03:18:52;11.02;;;7.63;;
52530;SDS011;38441;52.894;6.040;2022-10-31T03:21:30;10.13;;;7.40;;
52530;SDS011;38441;52.894;6.040;2022-10-31T03:24:02;14.23;;;7.50;;
52530;SDS011;38441;52.894;6.040;2022-10-31T03:26:31;14.25;;;8.32;;
52530;SDS011;38441;52.894;6.040;2022-10-31T03:29:01;12.80;;;8.38;;
52530;SDS011;38441;52.894;6.040;2022-10-31T03:31:39;10.07;;;7.80;;
52530;SDS011;38441;52.894;6.040;2022-10-31T03:34:19;14.23;;;8.45;;
52530;SDS011;38441;52.894;6.040;2022-10-31T03:36:46;11.25;;;7.45;;
52530;SDS011;38441;52.894;6.040;2022-10-31T03:39:15;13.82;;;8.45;;
52530;SDS011;38441;52.894;6.040;2022-10-31T03:41:45;13.88;;;7.80;;
52530;SDS011;38441;52.894;6.040;2022-10-31T03:44:17;13.68;;;8.32;;
52530;SDS011;38441;52.894;6.040;2022-10-31T03:46:45;14.90;;;8.73;;
52530;SDS011;38441;52.894;6.040;2022-10-31T03:49:11;12.18;;;8.63;;
52530;SDS011;38441;52.894;6.040;2022-10-31T03:59:39;13.80;;;8.95;;
52530;SDS011;38441;52.894;6.040;2022-10-31T04:04:39;12.07;;;7.25;;
52530;SDS011;38441;52.894;6.040;2022-10-31T04:07:05;12.13;;;7.78;;
52530;SDS011;38441;52.894;6.040;2022-10-31T04:09:33;10.55;;;7.35;;
52530;SDS011;38441;52.894;6.040;2022-10-31T04:12:01;11.10;;;6.90;;
52530;SDS011;38441;52.894;6.040;2022-10-31T04:14:30;10.48;;;7.70;;
52530;SDS011;38441;52.894;6.040;2022-10-31T04:16:58;13.20;;;7.40;;
52530;SDS011;38441;52.894;6.040;2022-10-31T04:19:26;11.98;;;8.07;;
52530;SDS011;38441;52.894;6.040;2022-10-31T04:21:51;13.07;;;7.80;;
52530;SDS011;38441;52.894;6.040;2022-10-31T04:24:17;11.93;;;8.20;;
52530;SDS011;38441;52.894;6.040;2022-10-31T04:26:43;13.23;;;8.07;;
52530;SDS011;38441;52.894;6.040;2022-10-31T04:29:08;11.10;;;7.82;;
52530;SDS011;38441;52.894;6.040;2022-10-31T04:31:34;13.52;;;7.60;;
52530;SDS011;38441;52.894;6.040;2022-10-31T04:33:59;11.68;;;7.70;;
52530;SDS011;38441;52.894;6.040;2022-10-31T04:36:25;12.40;;;8.30;;
52530;SDS011;38441;52.894;6.040;2022-10-31T04:38:51;15.27;;;8.88;;
52530;SDS011;38441;52.894;6.040;2022-10-31T04:41:16;12.48;;;8.18;;
52530;SDS011;38441;52.894;6.040;2022-10-31T04:43:42;12.75;;;7.25;;
52530;SDS011;38441;52.894;6.040;2022-10-31T04:46:07;10.75;;;7.00;;
52530;SDS011;38441;52.894;6.040;2022-10-31T04:48:33;7.85;;;6.47;;
52530;SDS011;38441;52.894;6.040;2022-10-31T04:50:59;10.48;;;7.55;;
52530;SDS011;38441;52.894;6.040;2022-10-31T04:53:26;10.45;;;6.15;;
52530;SDS011;38441;52.894;6.040;2022-10-31T04:55:51;9.00;;;5.70;;
52530;SDS011;38441;52.894;6.040;2022-10-31T04:58:17;10.15;;;6.45;;
52530;SDS011;38441;52.894;6.040;2022-10-31T05:00:43;9.60;;;7.03;;
52530;SDS011;38441;52.894;6.040;2022-10-31T05:03:08;9.77;;;6.28;;
52530;SDS011;38441;52.894;6.040;2022-10-31T05:05:34;8.48;;;5.75;;
52530;SDS011;38441;52.894;6.040;2022-10-31T05:08:00;8.30;;;6.03;;
52530;SDS011;38441;52.894;6.040;2022-10-31T05:10:27;8.18;;;5.78;;
52530;SDS011;38441;52.894;6.040;2022-10-31T05:12:57;8.75;;;6.18;;
52530;SDS011;38441;52.894;6.040;2022-10-31T05:15:25;10.18;;;6.15;;
52530;SDS011;38441;52.894;6.040;2022-10-31T05:17:52;7.72;;;6.00;;
52530;SDS011;38441;52.894;6.040;2022-10-31T05:20:19;8.30;;;5.88;;
52530;SDS011;38441;52.894;6.040;2022-10-31T05:22:46;7.53;;;5.95;;
52530;SDS011;38441;52.894;6.040;2022-10-31T05:25:14;10.52;;;7.03;;
52530;SDS011;38441;52.894;6.040;2022-10-31T05:27:43;10.43;;;7.15;;
52530;SDS011;38441;52.894;6.040;2022-10-31T05:30:11;9.30;;;6.63;;
52530;SDS011;38441;52.894;6.040;2022-10-31T05:32:43;11.00;;;6.82;;
52530;SDS011;38441;52.894;6.040;2022-10-31T05:35:11;7.78;;;5.65;;
52530;SDS011;38441;52.894;6.040;2022-10-31T05:37:38;8.55;;;5.68;;
52530;SDS011;38441;52.894;6.040;2022-10-31T05:40:04;8.25;;;6.13;;
52530;SDS011;38441;52.894;6.040;2022-10-31T05:42:31;9.95;;;6.22;;
52530;SDS011;38441;52.894;6.040;2022-10-31T05:44:57;10.68;;;6.85;;
52530;SDS011;38441;52.894;6.040;2022-10-31T05:47:23;10.70;;;6.57;;
52530;SDS011;38441;52.894;6.040;2022-10-31T05:49:49;9.70;;;6.55;;
52530;SDS011;38441;52.894;6.040;2022-10-31T05:52:14;10.43;;;6.22;;
52530;SDS011;38441;52.894;6.040;2022-10-31T05:54:40;8.85;;;6.20;;
52530;SDS011;38441;52.894;6.040;2022-10-31T05:57:06;8.27;;;5.88;;
52530;SDS011;38441;52.894;6.040;2022-10-31T05:59:31;9.27;;;6.25;;
52530;SDS011;38441;52.894;6.040;2022-10-31T06:01:57;9.77;;;6.55;;
52530;SDS011;38441;52.894;6.040;2022-10-31T06:04:23;9.18;;;6.47;;
52530;SDS011;38441;52.894;6.040;2022-10-31T06:06:48;10.05;;;6.60;;
52530;SDS011;38441;52.894;6.040;2022-10-31T06:09:14;8.73;;;6.28;;
52530;SDS011;38441;52.894;6.040;2022-10-31T06:11:40;9.85;;;6.68;;
52530;SDS011;38441;52.894;6.040;2022-10-31T06:14:06;10.48;;;7.32;;
52530;SDS011;38441;52.894;6.040;2022-10-31T06:16:31;12.55;;;7.32;;
52530;SDS011;38441;52.894;6.040;2022-10-31T06:18:57;9.45;;;6.60;;
52530;SDS011;38441;52.894;6.040;2022-10-31T06:21:23;12.02;;;7.35;;
52530;SDS011;38441;52.894;6.040;2022-10-31T06:23:49;11.95;;;7.30;;
52530;SDS011;38441;52.894;6.040;2022-10-31T06:26:14;9.23;;;6.28;;
52530;SDS011;38441;52.894;6.040;2022-10-31T06:28:40;9.05;;;5.88;;
52530;SDS011;38441;52.894;6.040;2022-10-31T06:31:05;8.60;;;6.22;;
52530;SDS011;38441;52.894;6.040;2022-10-31T06:33:31;8.45;;;5.80;;
52530;SDS011;38441;52.894;6.040;2022-10-31T06:35:57;7.88;;;5.80;;
52530;SDS011;38441;52.894;6.040;2022-10-31T06:38:23;6.22;;;4.47;;
52530;SDS011;38441;52.894;6.040;2022-10-31T06:40:50;6.53;;;5.13;;
52530;SDS011;38441;52.894;6.040;2022-10-31T06:43:15;9.45;;;5.88;;
52530;SDS011;38441;52.894;6.040;2022-10-31T06:45:41;10.02;;;6.60;;
52530;SDS011;38441;52.894;6.040;2022-10-31T06:48:06;7.28;;;5.55;;
52530;SDS011;38441;52.894;6.040;2022-10-31T06:50:32;8.60;;;6.60;;
52530;SDS011;38441;52.894;6.040;2022-10-31T06:52:58;10.15;;;6.72;;
52530;SDS011;38441;52.894;6.040;2022-10-31T06:55:24;10.50;;;6.63;;
52530;SDS011;38441;52.894;6.040;2022-10-31T07:00:17;10.63;;;6.65;;
52530;SDS011;38441;52.894;6.040;2022-10-31T07:02:43;9.57;;;6.45;;
52530;SDS011;38441;52.894;6.040;2022-10-31T07:05:08;6.50;;;4.75;;
52530;SDS011;38441;52.894;6.040;2022-10-31T07:07:34;5.70;;;4.00;;
52530;SDS011;38441;52.894;6.040;2022-10-31T07:09:59;8.85;;;5.60;;
52530;SDS011;38441;52.894;6.040;2022-10-31T07:12:25;8.25;;;5.30;;
52530;SDS011;38441;52.894;6.040;2022-10-31T07:14:51;9.95;;;6.78;;
52530;SDS011;38441;52.894;6.040;2022-10-31T07:17:16;9.13;;;6.20;;
52530;SDS011;38441;52.894;6.040;2022-10-31T07:19:42;8.68;;;6.95;;
52530;SDS011;38441;52.894;6.040;2022-10-31T07:22:07;9.00;;;6.28;;
52530;SDS011;38441;52.894;6.040;2022-10-31T07:24:33;12.60;;;7.15;;
52530;SDS011;38441;52.894;6.040;2022-10-31T07:26:58;9.60;;;6.97;;
52530;SDS011;38441;52.894;6.040;2022-10-31T07:29:24;9.02;;;7.18;;
52530;SDS011;38441;52.894;6.040;2022-10-31T07:31:50;12.52;;;8.05;;
52530;SDS011;38441;52.894;6.040;2022-10-31T07:34:15;11.73;;;8.02;;
52530;SDS011;38441;52.894;6.040;2022-10-31T07:36:41;12.90;;;7.97;;
52530;SDS011;38441;52.894;6.040;2022-10-31T07:39:06;10.63;;;8.77;;
52530;SDS011;38441;52.894;6.040;2022-10-31T07:41:32;12.02;;;8.35;;
52530;SDS011;38441;52.894;6.040;2022-10-31T07:43:59;13.75;;;8.57;;
52530;SDS011;38441;52.894;6.040;2022-10-31T07:46:24;11.07;;;8.05;;
52530;SDS011;38441;52.894;6.040;2022-10-31T07:48:50;11.77;;;8.07;;
52530;SDS011;38441;52.894;6.040;2022-10-31T07:51:15;12.73;;;8.48;;
52530;SDS011;38441;52.894;6.040;2022-10-31T07:53:41;13.32;;;9.13;;
52530;SDS011;38441;52.894;6.040;2022-10-31T07:56:06;15.45;;;10.05;;
52530;SDS011;38441;52.894;6.040;2022-10-31T07:58:32;14.32;;;9.68;;
52530;SDS011;38441;52.894;6.040;2022-10-31T08:00:57;17.02;;;10.48;;
52530;SDS011;38441;52.894;6.040;2022-10-31T08:03:23;14.13;;;10.82;;
52530;SDS011;38441;52.894;6.040;2022-10-31T08:05:49;16.90;;;10.45;;
52530;SDS011;38441;52.894;6.040;2022-10-31T08:08:14;15.60;;;11.15;;
52530;SDS011;38441;52.894;6.040;2022-10-31T08:10:41;15.68;;;11.30;;
52530;SDS011;38441;52.894;6.040;2022-10-31T08:13:11;15.98;;;11.25;;
52530;SDS011;38441;52.894;6.040;2022-10-31T08:15:38;17.10;;;11.95;;
52530;SDS011;38441;52.894;6.040;2022-10-31T08:18:06;14.52;;;11.75;;
52530;SDS011;38441;52.894;6.040;2022-10-31T08:20:39;16.85;;;11.25;;
52530;SDS011;38441;52.894;6.040;2022-10-31T08:23:05;18.42;;;11.13;;
52530;SDS011;38441;52.894;6.040;2022-10-31T08:25:31;19.08;;;11.95;;
52530;SDS011;38441;52.894;6.040;2022-10-31T08:27:58;17.75;;;12.02;;
52530;SDS011;38441;52.894;6.040;2022-10-31T08:30:25;19.90;;;12.07;;
52530;SDS011;38441;52.894;6.040;2022-10-31T08:33:03;16.80;;;12.23;;
52530;SDS011;38441;52.894;6.040;2022-10-31T08:35:36;17.92;;;12.70;;
52530;SDS011;38441;52.894;6.040;2022-10-31T08:38:02;17.00;;;12.70;;
52530;SDS011;38441;52.894;6.040;2022-10-31T08:40:29;20.80;;;12.57;;
52530;SDS011;38441;52.894;6.040;2022-10-31T08:43:03;20.30;;;12.82;;
52530;SDS011;38441;52.894;6.040;2022-10-31T08:45:30;19.88;;;13.52;;
52530;SDS011;38441;52.894;6.040;2022-10-31T08:47:58;18.95;;;13.80;;
52530;SDS011;38441;52.894;6.040;2022-10-31T08:50:24;21.92;;;13.90;;
52530;SDS011;38441;52.894;6.040;2022-10-31T08:52:51;23.05;;;14.43;;
52530;SDS011;38441;52.894;6.040;2022-10-31T08:55:16;21.08;;;15.00;;
52530;SDS011;38441;52.894;6.040;2022-10-31T08:57:42;21.88;;;13.98;;
52530;SDS011;38441;52.894;6.040;2022-10-31T09:00:08;24.73;;;13.70;;
52530;SDS011;38441;52.894;6.040;2022-10-31T09:02:34;19.30;;;13.50;;
52530;SDS011;38441;52.894;6.040;2022-10-31T09:04:59;21.80;;;14.27;;
52530;SDS011;38441;52.894;6.040;2022-10-31T09:07:25;22.38;;;13.77;;
52530;SDS011;38441;52.894;6.040;2022-10-31T09:09:51;21.15;;;12.57;;
52530;SDS011;38441;52.894;6.040;2022-10-31T09:12:16;18.92;;;13.52;;
52530;SDS011;38441;52.894;6.040;2022-10-31T09:14:42;17.65;;;12.02;;
52530;SDS011;38441;52.894;6.040;2022-10-31T09:17:07;20.70;;;13.25;;
52530;SDS011;38441;52.894;6.040;2022-10-31T09:19:33;20.10;;;12.45;;
52530;SDS011;38441;52.894;6.040;2022-10-31T09:21:58;19.77;;;12.45;;
52530;SDS011;38441;52.894;6.040;2022-10-31T09:24:24;17.58;;;11.57;;
52530;SDS011;38441;52.894;6.040;2022-10-31T09:26:49;16.67;;;11.60;;
52530;SDS011;38441;52.894;6.040;2022-10-31T09:29:15;17.23;;;12.02;;
52530;SDS011;38441;52.894;6.040;2022-10-31T09:31:42;21.17;;;13.57;;
52530;SDS011;38441;52.894;6.040;2022-10-31T09:34:07;16.20;;;12.45;;
52530;SDS011;38441;52.894;6.040;2022-10-31T09:36:33;19.45;;;13.18;;
52530;SDS011;38441;52.894;6.040;2022-10-31T09:38:58;18.70;;;13.43;;
52530;SDS011;38441;52.894;6.040;2022-10-31T09:47:23;20.83;;;14.82;;
52530;SDS011;38441;52.894;6.040;2022-10-31T09:50:12;22.65;;;15.80;;
52530;SDS011;38441;52.894;6.040;2022-10-31T09:52:50;23.48;;;15.35;;
52530;SDS011;38441;52.894;6.040;2022-10-31T09:55:36;22.75;;;16.60;;
52530;SDS011;38441;52.894;6.040;2022-10-31T09:58:05;28.63;;;16.45;;
52530;SDS011;38441;52.894;6.040;2022-10-31T10:00:38;24.70;;;16.65;;
52530;SDS011;38441;52.894;6.040;2022-10-31T10:05:50;24.88;;;17.48;;
52530;SDS011;38441;52.894;6.040;2022-10-31T10:08:40;23.17;;;16.88;;
52530;SDS011;38441;52.894;6.040;2022-10-31T10:14:19;24.30;;;16.58;;
52530;SDS011;38441;52.894;6.040;2022-10-31T10:17:07;25.02;;;17.30;;
52530;SDS011;38441;52.894;6.040;2022-10-31T10:22:21;27.20;;;18.48;;
52530;SDS011;38441;52.894;6.040;2022-10-31T10:25:09;26.42;;;17.75;;
52530;SDS011;38441;52.894;6.040;2022-10-31T10:33:28;26.20;;;18.80;;
52530;SDS011;38441;52.894;6.040;2022-10-31T10:36:05;26.48;;;17.98;;
52530;SDS011;38441;52.894;6.040;2022-10-31T10:39:07;23.27;;;16.95;;
52530;SDS011;38441;52.894;6.040;2022-10-31T10:41:35;24.35;;;17.17;;
52530;SDS011;38441;52.894;6.040;2022-10-31T10:44:04;28.15;;;18.92;;
52530;SDS011;38441;52.894;6.040;2022-10-31T10:46:51;26.77;;;17.77;;
52530;SDS011;38441;52.894;6.040;2022-10-31T10:49:51;27.95;;;16.73;;
52530;SDS011;38441;52.894;6.040;2022-10-31T10:52:26;28.75;;;17.42;;
52530;SDS011;38441;52.894;6.040;2022-10-31T10:57:56;27.10;;;17.23;;
52530;SDS011;38441;52.894;6.040;2022-10-31T11:00:34;25.13;;;17.27;;
52530;SDS011;38441;52.894;6.040;2022-10-31T11:03:04;22.98;;;15.73;;
52530;SDS011;38441;52.894;6.040;2022-10-31T11:07:58;21.80;;;15.70;;
52530;SDS011;38441;52.894;6.040;2022-10-31T11:10:24;22.88;;;14.43;;
52530;SDS011;38441;52.894;6.040;2022-10-31T11:15:39;23.40;;;14.43;;
52530;SDS011;38441;52.894;6.040;2022-10-31T11:21:35;21.70;;;14.30;;
52530;SDS011;38441;52.894;6.040;2022-10-31T11:24:23;21.23;;;14.48;;
52530;SDS011;38441;52.894;6.040;2022-10-31T11:26:49;21.30;;;12.77;;
52530;SDS011;38441;52.894;6.040;2022-10-31T11:29:22;20.13;;;13.60;;
52530;SDS011;38441;52.894;6.040;2022-10-31T11:31:53;20.77;;;12.43;;
52530;SDS011;38441;52.894;6.040;2022-10-31T11:37:04;17.40;;;11.20;;
52530;SDS011;38441;52.894;6.040;2022-10-31T11:39:41;16.63;;;10.60;;
52530;SDS011;38441;52.894;6.040;2022-10-31T11:42:18;16.58;;;11.65;;
52530;SDS011;38441;52.894;6.040;2022-10-31T11:44:46;16.02;;;10.88;;
52530;SDS011;38441;52.894;6.040;2022-10-31T11:47:14;14.80;;;10.55;;
52530;SDS011;38441;52.894;6.040;2022-10-31T11:49:42;16.50;;;10.30;;
52530;SDS011;38441;52.894;6.040;2022-10-31T11:52:20;15.98;;;10.63;;
52530;SDS011;38441;52.894;6.040;2022-10-31T11:57:45;16.20;;;9.45;;
52530;SDS011;38441;52.894;6.040;2022-10-31T12:00:26;14.00;;;9.32;;
52530;SDS011;38441;52.894;6.040;2022-10-31T12:03:03;16.42;;;9.73;;
52530;SDS011;38441;52.894;6.040;2022-10-31T12:05:29;15.43;;;9.98;;
52530;SDS011;38441;52.894;6.040;2022-10-31T12:07:58;15.75;;;9.77;;
52530;SDS011;38441;52.894;6.040;2022-10-31T12:10:24;16.40;;;10.30;;
52530;SDS011;38441;52.894;6.040;2022-10-31T12:15:42;15.00;;;9.23;;
52530;SDS011;38441;52.894;6.040;2022-10-31T12:18:26;17.25;;;9.93;;
52530;SDS011;38441;52.894;6.040;2022-10-31T12:21:03;16.60;;;9.40;;
52530;SDS011;38441;52.894;6.040;2022-10-31T12:26:50;14.20;;;9.05;;
52530;SDS011;38441;52.894;6.040;2022-10-31T12:30:09;16.98;;;9.63;;
52530;SDS011;38441;52.894;6.040;2022-10-31T12:32:43;14.15;;;9.68;;
52530;SDS011;38441;52.894;6.040;2022-10-31T12:35:26;13.63;;;9.43;;
52530;SDS011;38441;52.894;6.040;2022-10-31T12:46:02;11.70;;;8.60;;
52530;SDS011;38441;52.894;6.040;2022-10-31T12:51:22;17.17;;;9.85;;
52530;SDS011;38441;52.894;6.040;2022-10-31T12:54:05;16.67;;;8.98;;
52530;SDS011;38441;52.894;6.040;2022-10-31T12:59:46;13.23;;;7.75;;
52530;SDS011;38441;52.894;6.040;2022-10-31T13:02:29;11.88;;;7.10;;
52530;SDS011;38441;52.894;6.040;2022-10-31T13:05:14;8.85;;;6.07;;
52530;SDS011;38441;52.894;6.040;2022-10-31T13:07:48;14.05;;;6.63;;
52530;SDS011;38441;52.894;6.040;2022-10-31T13:10:22;11.52;;;6.55;;
52530;SDS011;38441;52.894;6.040;2022-10-31T13:12:54;14.63;;;6.40;;
52530;SDS011;38441;52.894;6.040;2022-10-31T13:15:29;13.13;;;5.57;;
52530;SDS011;38441;52.894;6.040;2022-10-31T13:18:01;11.90;;;6.75;;
52530;SDS011;38441;52.894;6.040;2022-10-31T13:20:41;13.27;;;5.72;;
52530;SDS011;38441;52.894;6.040;2022-10-31T13:23:27;11.32;;;6.22;;
52530;SDS011;38441;52.894;6.040;2022-10-31T13:25:56;12.13;;;6.05;;
52530;SDS011;38441;52.894;6.040;2022-10-31T13:31:13;12.98;;;6.60;;
52530;SDS011;38441;52.894;6.040;2022-10-31T13:33:44;12.90;;;5.80;;
52530;SDS011;38441;52.894;6.040;2022-10-31T13:36:27;10.02;;;5.65;;
52530;SDS011;38441;52.894;6.040;2022-10-31T13:41:54;11.32;;;6.05;;
52530;SDS011;38441;52.894;6.040;2022-10-31T13:44:25;13.00;;;5.72;;
52530;SDS011;38441;52.894;6.040;2022-10-31T13:46:53;9.27;;;6.00;;
52530;SDS011;38441;52.894;6.040;2022-10-31T13:54:46;12.63;;;5.80;;
52530;SDS011;38441;52.894;6.040;2022-10-31T13:57:19;9.82;;;5.75;;
52530;SDS011;38441;52.894;6.040;2022-10-31T13:59:55;11.93;;;6.00;;
52530;SDS011;38441;52.894;6.040;2022-10-31T14:02:34;10.55;;;5.82;;
52530;SDS011;38441;52.894;6.040;2022-10-31T14:05:05;8.35;;;5.00;;
52530;SDS011;38441;52.894;6.040;2022-10-31T14:07:44;9.65;;;4.82;;
52530;SDS011;38441;52.894;6.040;2022-10-31T14:10:22;11.88;;;5.05;;
52530;SDS011;38441;52.894;6.040;2022-10-31T14:12:51;10.07;;;4.65;;
52530;SDS011;38441;52.894;6.040;2022-10-31T14:15:23;10.95;;;5.43;;
52530;SDS011;38441;52.894;6.040;2022-10-31T14:29:02;9.85;;;4.95;;
52530;SDS011;38441;52.894;6.040;2022-10-31T14:31:57;12.50;;;5.18;;
52530;SDS011;38441;52.894;6.040;2022-10-31T14:40:23;11.30;;;6.15;;
52530;SDS011;38441;52.894;6.040;2022-10-31T14:43:04;10.30;;;6.10;;
52530;SDS011;38441;52.894;6.040;2022-10-31T14:45:41;10.57;;;6.07;;
52530;SDS011;38441;52.894;6.040;2022-10-31T14:51:36;11.18;;;6.80;;
52530;SDS011;38441;52.894;6.040;2022-10-31T14:54:06;11.70;;;6.13;;
52530;SDS011;38441;52.894;6.040;2022-10-31T14:56:37;10.25;;;6.30;;
52530;SDS011;38441;52.894;6.040;2022-10-31T15:01:57;8.27;;;4.97;;
52530;SDS011;38441;52.894;6.040;2022-10-31T15:04:27;11.77;;;5.40;;
52530;SDS011;38441;52.894;6.040;2022-10-31T15:07:02;9.15;;;4.70;;
52530;SDS011;38441;52.894;6.040;2022-10-31T15:09:35;8.68;;;5.25;;
52530;SDS011;38441;52.894;6.040;2022-10-31T15:12:22;12.68;;;6.07;;
52530;SDS011;38441;52.894;6.040;2022-10-31T15:14:52;11.05;;;5.20;;
52530;SDS011;38441;52.894;6.040;2022-10-31T15:17:18;13.85;;;5.70;;
52530;SDS011;38441;52.894;6.040;2022-10-31T15:23:27;10.65;;;5.40;;
52530;SDS011;38441;52.894;6.040;2022-10-31T15:25:58;9.52;;;5.97;;
52530;SDS011;38441;52.894;6.040;2022-10-31T15:28:28;14.27;;;6.50;;
52530;SDS011;38441;52.894;6.040;2022-10-31T15:30:55;10.55;;;5.80;;
52530;SDS011;38441;52.894;6.040;2022-10-31T15:33:23;14.80;;;6.28;;
52530;SDS011;38441;52.894;6.040;2022-10-31T15:36:04;11.23;;;5.78;;
52530;SDS011;38441;52.894;6.040;2022-10-31T15:38:30;12.00;;;6.28;;
52530;SDS011;38441;52.894;6.040;2022-10-31T15:43:45;11.27;;;5.65;;
52530;SDS011;38441;52.894;6.040;2022-10-31T15:46:12;12.63;;;6.05;;
52530;SDS011;38441;52.894;6.040;2022-10-31T15:48:37;10.48;;;5.32;;
52530;SDS011;38441;52.894;6.040;2022-10-31T15:51:08;10.35;;;6.15;;
52530;SDS011;38441;52.894;6.040;2022-10-31T15:53:50;11.20;;;5.47;;
52530;SDS011;38441;52.894;6.040;2022-10-31T15:56:22;11.13;;;5.68;;
52530;SDS011;38441;52.894;6.040;2022-10-31T15:58:51;10.43;;;5.60;;
52530;SDS011;38441;52.894;6.040;2022-10-31T16:01:22;9.65;;;5.10;;
52530;SDS011;38441;52.894;6.040;2022-10-31T16:06:27;9.02;;;5.65;;
52530;SDS011;38441;52.894;6.040;2022-10-31T16:08:53;11.02;;;5.95;;
52530;SDS011;38441;52.894;6.040;2022-10-31T16:13:56;12.90;;;5.78;;
52530;SDS011;38441;52.894;6.040;2022-10-31T16:16:31;10.10;;;5.30;;
52530;SDS011;38441;52.894;6.040;2022-10-31T16:18:59;11.38;;;5.70;;
52530;SDS011;38441;52.894;6.040;2022-10-31T16:21:33;11.77;;;5.07;;
52530;SDS011;38441;52.894;6.040;2022-10-31T16:24:46;11.80;;;5.93;;
52530;SDS011;38441;52.894;6.040;2022-10-31T16:26:55;10.43;;;5.63;;
52530;SDS011;38441;52.894;6.040;2022-10-31T16:29:28;11.10;;;5.43;;
52530;SDS011;38441;52.894;6.040;2022-10-31T16:34:58;10.23;;;5.63;;
52530;SDS011;38441;52.894;6.040;2022-10-31T16:37:24;9.55;;;5.30;;
52530;SDS011;38441;52.894;6.040;2022-10-31T16:39:49;12.18;;;6.15;;
52530;SDS011;38441;52.894;6.040;2022-10-31T16:42:15;10.43;;;5.80;;
52530;SDS011;38441;52.894;6.040;2022-10-31T16:44:47;11.88;;;6.78;;
52530;SDS011;38441;52.894;6.040;2022-10-31T16:47:14;12.57;;;6.47;;
52530;SDS011;38441;52.894;6.040;2022-10-31T16:49:42;13.32;;;6.13;;
52530;SDS011;38441;52.894;6.040;2022-10-31T16:52:08;11.95;;;6.50;;
52530;SDS011;38441;52.894;6.040;2022-10-31T16:54:34;9.25;;;6.00;;
52530;SDS011;38441;52.894;6.040;2022-10-31T16:56:59;9.88;;;6.05;;
52530;SDS011;38441;52.894;6.040;2022-10-31T16:59:27;9.25;;;5.95;;
52530;SDS011;38441;52.894;6.040;2022-10-31T17:01:54;11.70;;;6.05;;
52530;SDS011;38441;52.894;6.040;2022-10-31T17:04:20;10.73;;;5.70;;
52530;SDS011;38441;52.894;6.040;2022-10-31T17:06:46;10.35;;;6.00;;